createdAt,value
2018-03-26T00:00:03.787Z,8.78
2018-03-26T00:01:03.630Z,8.79
2018-03-26T00:02:03.635Z,8.76
2018-03-26T00:03:03.487Z,8.71
2018-03-26T00:04:03.498Z,8.73
2018-03-26T00:05:03.304Z,8.60
2018-03-26T00:06:03.314Z,8.57
2018-03-26T00:07:03.140Z,8.55
2018-03-26T00:08:03.164Z,8.60
2018-03-26T00:09:02.999Z,8.46
2018-03-26T00:10:03.023Z,8.54
2018-03-26T00:11:02.819Z,8.49
2018-03-26T00:12:02.838Z,8.60
2018-03-26T00:13:02.681Z,8.54
2018-03-26T00:14:02.693Z,8.63
2018-03-26T00:15:02.499Z,8.57
2018-03-26T00:16:02.455Z,8.49
2018-03-26T00:17:02.392Z,8.50
2018-03-26T00:18:02.396Z,8.46
2018-03-26T00:19:02.288Z,8.40
2018-03-26T00:20:02.175Z,8.32
2018-03-26T00:21:02.010Z,8.32
2018-03-26T00:22:02.084Z,8.36
2018-03-26T00:23:01.858Z,8.25
2018-03-26T00:24:01.832Z,8.28
2018-03-26T00:25:01.708Z,8.27
2018-03-26T00:26:01.702Z,8.18
2018-03-26T00:27:01.540Z,8.25
2018-03-26T00:28:01.514Z,8.20
2018-03-26T00:29:01.394Z,8.24
2018-03-26T00:30:01.317Z,8.25
2018-03-26T00:31:01.216Z,8.20
2018-03-26T00:32:01.144Z,8.20
2018-03-26T00:33:01.055Z,8.27
2018-03-26T00:34:01.084Z,8.25
2018-03-26T00:35:00.885Z,8.24
2018-03-26T00:36:00.880Z,8.22
2018-03-26T00:37:00.737Z,8.21
2018-03-26T00:38:00.760Z,8.18
2018-03-26T00:39:00.575Z,8.24
2018-03-26T00:40:00.567Z,8.29
2018-03-26T00:41:00.435Z,8.22
2018-03-26T00:42:00.325Z,8.22
2018-03-26T00:43:00.247Z,8.18
2018-03-26T00:44:00.290Z,8.21
2018-03-26T00:45:00.108Z,8.25
2018-03-26T00:46:00.093Z,8.25
2018-03-26T00:46:59.917Z,8.25
2018-03-26T00:47:59.908Z,8.21
2018-03-26T00:48:59.752Z,8.27
2018-03-26T00:49:59.754Z,8.29
2018-03-26T00:50:59.614Z,8.37
2018-03-26T00:51:59.631Z,8.29
2018-03-26T00:52:59.441Z,8.22
2018-03-26T00:53:59.435Z,8.31
2018-03-26T00:54:59.288Z,8.22
2018-03-26T00:55:59.238Z,8.20
2018-03-26T00:56:59.141Z,8.22
2018-03-26T00:57:59.154Z,8.20
2018-03-26T00:58:58.961Z,8.21
2018-03-26T00:59:58.904Z,8.20
2018-03-26T01:00:58.790Z,8.20
2018-03-26T01:01:58.763Z,8.27
2018-03-26T01:02:58.639Z,8.21
2018-03-26T01:03:58.680Z,8.18
2018-03-26T01:04:58.490Z,8.07
2018-03-26T01:05:58.484Z,8.04
2018-03-26T01:06:58.311Z,8.00
2018-03-26T01:07:58.298Z,8.03
2018-03-26T01:08:58.216Z,8.03
2018-03-26T01:09:58.443Z,7.99
2018-03-26T01:10:58.013Z,7.96
2018-03-26T01:13:51.843Z,7.94
2018-03-26T01:14:51.894Z,7.92
2018-03-26T01:15:51.705Z,7.84
2018-03-26T01:16:51.708Z,7.81
2018-03-26T01:17:51.523Z,7.76
2018-03-26T01:18:51.607Z,7.84
2018-03-26T01:19:51.363Z,7.82
2018-03-26T01:20:51.344Z,7.71
2018-03-26T01:21:51.237Z,7.73
2018-03-26T01:22:51.250Z,7.79
2018-03-26T01:23:51.046Z,7.84
2018-03-26T01:24:51.935Z,7.81
2018-03-26T01:25:50.898Z,7.71
2018-03-26T01:26:50.842Z,7.70
2018-03-26T01:27:50.738Z,7.66
2018-03-26T01:28:50.750Z,7.70
2018-03-26T01:29:50.561Z,7.67
2018-03-26T01:30:50.577Z,7.62
2018-03-26T01:31:50.392Z,7.63
2018-03-26T01:32:50.395Z,7.51
2018-03-26T01:33:50.239Z,7.52
2018-03-26T01:34:50.290Z,7.51
2018-03-26T01:35:50.071Z,7.51
2018-03-26T01:36:50.116Z,7.58
2018-03-26T01:37:49.937Z,7.47
2018-03-26T01:38:49.944Z,7.60
2018-03-26T01:39:49.758Z,7.58
2018-03-26T01:40:49.679Z,7.51
2018-03-26T01:41:49.623Z,7.51
2018-03-26T01:42:49.642Z,7.45
2018-03-26T01:43:49.427Z,7.51
2018-03-26T01:44:49.449Z,7.48
2018-03-26T01:45:49.258Z,7.48
2018-03-26T01:46:49.232Z,7.44
2018-03-26T01:47:49.125Z,7.48
2018-03-26T01:48:49.143Z,7.45
2018-03-26T01:49:48.957Z,7.47
2018-03-26T01:50:48.952Z,7.60
2018-03-26T01:51:48.775Z,7.47
2018-03-26T01:52:48.801Z,7.45
2018-03-26T01:53:48.619Z,7.32
2018-03-26T01:54:48.679Z,7.41
2018-03-26T01:55:48.453Z,7.34
2018-03-26T01:56:48.477Z,7.29
2018-03-26T01:57:48.438Z,7.27
2018-03-26T01:58:48.290Z,7.34
2018-03-26T01:59:48.137Z,7.30
2018-03-26T02:00:48.102Z,7.24
2018-03-26T02:01:47.961Z,7.24
2018-03-26T02:02:48.049Z,7.29
2018-03-26T02:03:47.807Z,7.30
2018-03-26T02:04:47.849Z,7.24
2018-03-26T02:05:47.649Z,7.32
2018-03-26T02:06:47.628Z,7.24
2018-03-26T02:07:47.475Z,7.34
2018-03-26T02:08:47.500Z,7.37
2018-03-26T02:09:47.349Z,7.27
2018-03-26T02:10:47.355Z,7.27
2018-03-26T02:11:47.168Z,7.24
2018-03-26T02:12:47.146Z,7.29
2018-03-26T02:13:47.017Z,7.27
2018-03-26T02:14:47.062Z,7.21
2018-03-26T02:15:46.852Z,7.23
2018-03-26T02:18:28.862Z,7.21
2018-03-26T02:19:28.901Z,7.26
2018-03-26T02:20:28.707Z,7.24
2018-03-26T02:21:28.685Z,7.18
2018-03-26T02:22:28.543Z,7.18
2018-03-26T02:23:28.598Z,7.16
2018-03-26T02:24:28.402Z,7.12
2018-03-26T02:25:28.424Z,7.11
2018-03-26T02:26:28.208Z,7.18
2018-03-26T02:27:28.217Z,7.19
2018-03-26T02:28:28.047Z,7.15
2018-03-26T02:29:28.009Z,7.19
2018-03-26T02:30:27.911Z,7.30
2018-03-26T02:31:27.828Z,7.21
2018-03-26T02:32:27.718Z,7.21
2018-03-26T02:33:27.745Z,7.16
2018-03-26T02:34:27.558Z,7.18
2018-03-26T02:35:27.558Z,7.14
2018-03-26T02:36:27.409Z,7.11
2018-03-26T02:37:27.354Z,7.15
2018-03-26T02:38:27.244Z,7.15
2018-03-26T02:39:27.257Z,7.18
2018-03-26T02:40:27.083Z,7.12
2018-03-26T02:41:27.093Z,7.15
2018-03-26T02:42:26.910Z,7.19
2018-03-26T02:43:26.880Z,7.15
2018-03-26T02:44:26.834Z,7.23
2018-03-26T02:45:26.717Z,7.23
2018-03-26T02:46:26.600Z,7.24
2018-03-26T02:47:26.661Z,7.30
2018-03-26T02:48:26.433Z,7.27
2018-03-26T02:49:26.405Z,7.23
2018-03-26T02:50:26.280Z,7.15
2018-03-26T02:51:26.249Z,7.21
2018-03-26T02:52:26.097Z,7.15
2018-03-26T02:53:26.122Z,7.16
2018-03-26T02:54:25.962Z,7.16
2018-03-26T02:55:25.925Z,7.15
2018-03-26T02:56:25.792Z,7.04
2018-03-26T02:57:25.842Z,7.15
2018-03-26T02:58:25.620Z,7.07
2018-03-26T03:01:07.887Z,7.09
2018-03-26T03:02:07.877Z,7.07
2018-03-26T03:03:07.702Z,7.04
2018-03-26T03:04:07.666Z,7.14
2018-03-26T03:05:07.543Z,7.08
2018-03-26T03:06:07.599Z,7.15
2018-03-26T03:07:07.380Z,7.16
2018-03-26T03:08:07.377Z,7.14
2018-03-26T03:09:07.215Z,7.23
2018-03-26T03:11:49.388Z,7.01
2018-03-26T03:12:49.431Z,7.08
2018-03-26T03:13:49.213Z,7.19
2018-03-26T03:14:49.200Z,7.12
2018-03-26T03:15:49.041Z,7.09
2018-03-26T03:16:49.046Z,7.07
2018-03-26T03:17:48.880Z,7.11
2018-03-26T03:18:48.913Z,7.11
2018-03-26T03:19:48.718Z,7.08
2018-03-26T03:20:48.724Z,7.05
2018-03-26T03:21:48.570Z,7.05
2018-03-26T03:22:48.554Z,7.11
2018-03-26T03:23:48.390Z,7.05
2018-03-26T03:24:48.337Z,7.09
2018-03-26T03:25:48.244Z,6.99
2018-03-26T03:26:48.292Z,7.07
2018-03-26T03:27:48.068Z,7.04
2018-03-26T03:28:48.067Z,7.09
2018-03-26T03:29:47.906Z,7.07
2018-03-26T03:30:47.880Z,7.11
2018-03-26T03:31:47.786Z,7.11
2018-03-26T03:32:47.784Z,7.05
2018-03-26T03:33:47.579Z,7.08
2018-03-26T03:34:47.590Z,7.09
2018-03-26T03:35:47.424Z,7.15
2018-03-26T03:36:47.400Z,7.07
2018-03-26T03:37:47.295Z,7.07
2018-03-26T03:38:47.314Z,7.21
2018-03-26T03:39:47.132Z,7.15
2018-03-26T03:40:47.122Z,7.16
2018-03-26T03:41:46.931Z,7.07
2018-03-26T03:42:47.033Z,7.08
2018-03-26T03:43:46.777Z,7.00
2018-03-26T03:44:46.768Z,6.96
2018-03-26T03:45:46.607Z,7.04
2018-03-26T03:46:46.641Z,7.00
2018-03-26T03:47:46.443Z,7.09
2018-03-26T03:48:46.456Z,6.96
2018-03-26T03:49:46.297Z,7.04
2018-03-26T03:50:46.267Z,7.05
2018-03-26T03:51:46.132Z,6.97
2018-03-26T03:52:46.096Z,6.99
2018-03-26T03:53:45.972Z,7.04
2018-03-26T03:54:46.016Z,7.00
2018-03-26T03:55:45.797Z,7.04
2018-03-26T03:56:45.792Z,7.05
2018-03-26T03:57:45.637Z,7.04
2018-03-26T03:58:45.572Z,7.11
2018-03-26T03:59:45.548Z,7.07
2018-03-26T04:00:45.540Z,7.05
2018-03-26T04:01:45.311Z,7.09
2018-03-26T04:02:45.945Z,7.07
2018-03-26T04:03:45.179Z,7.08
2018-03-26T04:04:45.134Z,7.09
2018-03-26T04:05:44.994Z,6.99
2018-03-26T04:06:45.038Z,7.09
2018-03-26T04:07:44.831Z,7.14
2018-03-26T04:08:44.881Z,7.12
2018-03-26T04:09:44.665Z,7.27
2018-03-26T04:10:44.658Z,7.15
2018-03-26T04:11:44.506Z,7.09
2018-03-26T04:12:44.559Z,7.26
2018-03-26T04:13:44.363Z,7.14
2018-03-26T04:14:44.372Z,7.16
2018-03-26T04:15:44.271Z,7.08
2018-03-26T04:16:44.275Z,7.05
2018-03-26T04:17:44.009Z,7.11
2018-03-26T04:18:44.031Z,7.08
2018-03-26T04:19:43.856Z,7.01
2018-03-26T04:20:43.823Z,7.04
2018-03-26T04:21:43.689Z,6.94
2018-03-26T04:22:43.706Z,6.83
2018-03-26T04:23:43.527Z,6.93
2018-03-26T04:24:43.555Z,6.86
2018-03-26T04:25:43.371Z,6.83
2018-03-26T04:26:43.329Z,6.65
2018-03-26T04:27:43.202Z,6.68
2018-03-26T04:28:43.239Z,6.51
2018-03-26T04:29:43.055Z,6.53
2018-03-26T04:30:43.039Z,6.53
2018-03-26T04:31:42.901Z,6.54
2018-03-26T04:32:42.852Z,6.60
2018-03-26T04:33:42.712Z,6.58
2018-03-26T04:34:42.691Z,6.53
2018-03-26T04:35:42.646Z,6.45
2018-03-26T04:36:42.567Z,6.53
2018-03-26T04:37:42.388Z,6.39
2018-03-26T04:38:42.495Z,6.38
2018-03-26T04:39:42.241Z,6.40
2018-03-26T04:40:42.185Z,6.43
2018-03-26T04:41:42.070Z,6.32
2018-03-26T04:42:42.101Z,6.38
2018-03-26T04:43:41.922Z,6.33
2018-03-26T04:44:41.935Z,6.38
2018-03-26T04:45:41.743Z,6.33
2018-03-26T04:46:41.716Z,6.28
2018-03-26T04:47:41.574Z,6.24
2018-03-26T04:48:41.523Z,6.20
2018-03-26T04:49:41.441Z,6.25
2018-03-26T04:50:41.477Z,6.20
2018-03-26T04:51:41.270Z,6.24
2018-03-26T04:52:41.247Z,6.19
2018-03-26T04:53:41.087Z,6.16
2018-03-26T04:54:41.042Z,6.13
2018-03-26T04:55:40.963Z,6.10
2018-03-26T04:56:40.956Z,6.08
2018-03-26T04:57:40.767Z,6.05
2018-03-26T04:58:40.765Z,6.06
2018-03-26T04:59:40.626Z,5.99
2018-03-26T05:00:40.578Z,6.05
2018-03-26T05:01:40.443Z,6.05
2018-03-26T05:02:40.380Z,6.02
2018-03-26T05:03:40.270Z,5.99
2018-03-26T05:04:40.325Z,6.01
2018-03-26T05:05:40.122Z,5.93
2018-03-26T05:06:40.131Z,5.92
2018-03-26T05:07:39.950Z,5.93
2018-03-26T05:08:40.024Z,5.87
2018-03-26T05:09:39.801Z,5.99
2018-03-26T05:10:39.853Z,5.96
2018-03-26T05:11:39.621Z,5.90
2018-03-26T05:12:39.632Z,5.87
2018-03-26T05:13:39.461Z,5.95
2018-03-26T05:14:39.414Z,5.95
2018-03-26T05:15:39.297Z,5.87
2018-03-26T05:16:39.279Z,5.85
2018-03-26T05:17:39.135Z,5.93
2018-03-26T05:18:39.067Z,5.90
2018-03-26T05:19:38.965Z,5.96
2018-03-26T05:20:38.966Z,5.88
2018-03-26T05:21:38.820Z,5.92
2018-03-26T05:22:38.776Z,5.88
2018-03-26T05:23:38.636Z,5.87
2018-03-26T05:24:38.688Z,5.88
2018-03-26T05:25:38.469Z,5.85
2018-03-26T05:26:38.517Z,5.85
2018-03-26T05:27:38.314Z,5.92
2018-03-26T05:28:38.307Z,5.95
2018-03-26T05:29:38.180Z,6.38
2018-03-26T05:30:38.115Z,6.48
2018-03-26T05:31:38.005Z,6.71
2018-03-26T05:32:38.046Z,7.37
2018-03-26T05:33:37.830Z,7.42
2018-03-26T05:34:37.853Z,7.45
2018-03-26T05:35:37.657Z,7.14
2018-03-26T05:36:37.634Z,7.11
2018-03-26T05:37:37.524Z,6.96
2018-03-26T05:38:37.447Z,6.93
2018-03-26T05:39:37.348Z,6.86
2018-03-26T05:40:37.358Z,6.76
2018-03-26T05:41:37.195Z,6.64
2018-03-26T05:42:37.203Z,6.68
2018-03-26T05:43:37.017Z,6.65
2018-03-26T05:44:37.074Z,6.71
2018-03-26T05:45:36.859Z,6.75
2018-03-26T05:46:36.887Z,6.68
2018-03-26T05:47:36.700Z,6.57
2018-03-26T05:48:36.733Z,6.65
2018-03-26T05:49:36.518Z,6.58
2018-03-26T05:50:36.510Z,6.58
2018-03-26T05:51:36.360Z,6.54
2018-03-26T05:52:36.308Z,6.58
2018-03-26T05:53:36.216Z,6.55
2018-03-26T05:54:36.222Z,6.61
2018-03-26T05:55:36.035Z,6.53
2018-03-26T05:56:36.031Z,6.61
2018-03-26T05:57:35.904Z,6.51
2018-03-26T05:58:35.884Z,6.39
2018-03-26T05:59:35.711Z,6.38
2018-03-26T06:00:35.751Z,6.38
2018-03-26T06:01:35.553Z,6.45
2018-03-26T06:02:35.566Z,6.53
2018-03-26T06:03:35.402Z,6.53
2018-03-26T06:04:35.488Z,6.51
2018-03-26T06:05:35.219Z,6.53
2018-03-26T06:06:35.195Z,6.38
2018-03-26T06:07:35.164Z,6.48
2018-03-26T06:08:35.129Z,6.57
2018-03-26T06:09:34.889Z,6.57
2018-03-26T06:10:34.973Z,6.55
2018-03-26T06:11:34.745Z,6.54
2018-03-26T06:12:34.712Z,6.60
2018-03-26T06:13:34.595Z,6.54
2018-03-26T06:14:34.619Z,6.60
2018-03-26T06:15:34.435Z,6.57
2018-03-26T06:16:34.432Z,6.55
2018-03-26T06:17:34.243Z,6.58
2018-03-26T06:18:34.234Z,6.61
2018-03-26T06:19:34.076Z,6.55
2018-03-26T06:20:34.073Z,6.55
2018-03-26T06:21:33.905Z,6.64
2018-03-26T06:24:15.917Z,6.65
2018-03-26T06:25:15.952Z,6.91
2018-03-26T06:26:15.738Z,7.04
2018-03-26T06:27:15.757Z,7.37
2018-03-26T06:28:15.573Z,7.48
2018-03-26T06:29:15.596Z,7.29
2018-03-26T06:30:15.406Z,7.11
2018-03-26T06:31:15.367Z,6.94
2018-03-26T06:32:15.245Z,6.75
2018-03-26T06:33:15.282Z,6.75
2018-03-26T06:34:15.090Z,6.73
2018-03-26T06:35:15.132Z,6.87
2018-03-26T06:36:14.922Z,6.75
2018-03-26T06:37:15.035Z,6.73
2018-03-26T06:38:14.759Z,6.86
2018-03-26T06:39:14.807Z,6.91
2018-03-26T06:40:14.609Z,6.97
2018-03-26T06:41:14.648Z,6.93
2018-03-26T06:42:14.436Z,6.91
2018-03-26T06:43:14.388Z,6.65
2018-03-26T06:44:14.330Z,6.82
2018-03-26T06:45:14.212Z,6.72
2018-03-26T06:46:14.126Z,6.63
2018-03-26T06:47:14.052Z,6.78
2018-03-26T06:48:13.944Z,6.94
2018-03-26T06:49:13.907Z,6.93
2018-03-26T06:50:13.786Z,6.91
2018-03-26T06:51:13.789Z,6.90
2018-03-26T06:52:13.635Z,6.71
2018-03-26T06:53:13.688Z,6.69
2018-03-26T06:54:13.472Z,6.61
2018-03-26T06:55:13.492Z,6.58
2018-03-26T06:56:13.335Z,6.57
2018-03-26T06:57:13.299Z,6.81
2018-03-26T06:58:13.136Z,6.97
2018-03-26T06:59:13.103Z,6.96
2018-03-26T07:00:13.029Z,6.91
2018-03-26T07:01:12.958Z,6.87
2018-03-26T07:02:12.812Z,6.73
2018-03-26T07:03:12.820Z,6.72
2018-03-26T07:04:12.641Z,6.89
2018-03-26T07:05:12.647Z,7.01
2018-03-26T07:06:12.578Z,7.11
2018-03-26T07:07:12.536Z,7.07
2018-03-26T07:08:12.330Z,6.79
2018-03-26T07:09:12.341Z,6.76
2018-03-26T07:10:12.187Z,6.81
2018-03-26T07:11:12.094Z,6.82
2018-03-26T07:12:12.023Z,6.99
2018-03-26T07:13:11.967Z,6.99
2018-03-26T07:14:11.842Z,6.91
2018-03-26T07:15:11.871Z,7.05
2018-03-26T07:16:11.690Z,7.27
2018-03-26T07:17:11.709Z,7.23
2018-03-26T07:18:11.515Z,7.37
2018-03-26T07:19:11.499Z,7.21
2018-03-26T07:20:11.365Z,7.09
2018-03-26T07:21:11.300Z,7.23
2018-03-26T07:22:11.217Z,7.19
2018-03-26T07:23:11.223Z,7.50
2018-03-26T07:24:11.034Z,7.71
2018-03-26T07:25:11.020Z,7.84
2018-03-26T07:26:10.862Z,7.85
2018-03-26T07:27:10.959Z,7.71
2018-03-26T07:28:10.737Z,7.94
2018-03-26T07:29:10.734Z,7.99
2018-03-26T07:30:10.668Z,7.96
2018-03-26T07:31:10.547Z,7.92
2018-03-26T07:32:10.400Z,7.86
2018-03-26T07:33:10.355Z,7.81
2018-03-26T07:34:10.225Z,7.79
2018-03-26T07:35:10.265Z,7.58
2018-03-26T07:36:10.065Z,7.73
2018-03-26T07:37:10.102Z,7.60
2018-03-26T07:38:09.902Z,7.55
2018-03-26T07:39:09.876Z,7.74
2018-03-26T07:40:09.752Z,7.89
2018-03-26T07:41:09.785Z,8.03
2018-03-26T07:42:09.611Z,8.34
2018-03-26T07:43:09.703Z,8.54
2018-03-26T07:44:09.466Z,8.75
2018-03-26T07:45:09.409Z,8.97
2018-03-26T07:46:09.255Z,8.97
2018-03-26T07:47:09.256Z,9.50
2018-03-26T07:48:09.118Z,9.62
2018-03-26T07:49:09.137Z,9.52
2018-03-26T07:50:08.949Z,9.50
2018-03-26T07:51:08.936Z,9.06
2018-03-26T07:52:08.770Z,8.93
2018-03-26T07:53:08.779Z,8.97
2018-03-26T07:54:08.608Z,8.79
2018-03-26T07:55:08.647Z,9.77
2018-03-26T07:56:08.476Z,10.90
2018-03-26T07:57:08.482Z,11.16
2018-03-26T07:58:08.322Z,11.12
2018-03-26T07:59:08.268Z,11.33
2018-03-26T08:00:08.138Z,11.90
2018-03-26T08:01:08.196Z,11.53
2018-03-26T08:02:07.986Z,11.36
2018-03-26T08:03:08.129Z,11.24
2018-03-26T08:04:07.832Z,11.64
2018-03-26T08:05:07.804Z,11.94
2018-03-26T08:06:07.771Z,10.62
2018-03-26T08:07:07.787Z,11.49
2018-03-26T08:08:07.505Z,12.13
2018-03-26T08:09:07.468Z,12.91
2018-03-26T08:10:07.352Z,12.88
2018-03-26T08:11:07.327Z,13.48
2018-03-26T08:12:07.183Z,14.19
2018-03-26T08:13:07.137Z,14.09
2018-03-26T08:14:07.050Z,13.41
2018-03-26T08:15:07.046Z,13.71
2018-03-26T08:16:06.879Z,14.01
2018-03-26T08:17:06.879Z,14.38
2018-03-26T08:18:06.721Z,14.27
2018-03-26T08:19:06.802Z,13.93
2018-03-26T08:20:06.554Z,13.65
2018-03-26T08:21:06.481Z,13.55
2018-03-26T08:22:06.403Z,13.29
2018-03-26T08:23:06.384Z,13.93
2018-03-26T08:24:06.261Z,14.09
2018-03-26T08:25:06.310Z,15.15
2018-03-26T08:26:06.099Z,15.38
2018-03-26T08:27:06.026Z,15.49
2018-03-26T08:28:05.927Z,15.62
2018-03-26T08:29:05.945Z,15.76
2018-03-26T08:30:05.813Z,15.80
2018-03-26T08:31:05.819Z,15.76
2018-03-26T08:32:05.624Z,15.78
2018-03-26T08:33:05.644Z,14.98
2018-03-26T08:34:05.474Z,14.41
2018-03-26T08:35:05.487Z,14.44
2018-03-26T08:36:05.349Z,14.52
2018-03-26T08:37:05.351Z,14.67
2018-03-26T08:38:05.164Z,14.95
2018-03-26T08:39:05.261Z,15.68
2018-03-26T08:40:05.041Z,15.67
2018-03-26T08:42:46.993Z,15.59
2018-03-26T08:43:46.961Z,15.33
2018-03-26T08:44:46.777Z,14.82
2018-03-26T08:45:46.927Z,14.78
2018-03-26T08:46:46.628Z,14.97
2018-03-26T08:47:46.989Z,15.15
2018-03-26T08:48:46.489Z,15.35
2018-03-26T08:51:28.441Z,15.78
2018-03-26T08:52:28.396Z,16.57
2018-03-26T08:53:29.365Z,16.50
2018-03-26T08:54:28.213Z,16.37
2018-03-26T08:55:28.581Z,15.51
2018-03-26T08:56:28.107Z,14.61
2018-03-26T08:57:28.003Z,14.75
2018-03-26T08:58:28.013Z,15.00
2018-03-26T08:59:27.843Z,14.94
2018-03-26T09:00:27.859Z,15.77
2018-03-26T09:01:27.684Z,16.22
2018-03-26T09:02:27.641Z,15.78
2018-03-26T09:03:27.522Z,15.96
2018-03-26T09:04:27.550Z,16.18
2018-03-26T09:05:27.388Z,15.95
2018-03-26T09:06:27.356Z,16.33
2018-03-26T09:07:27.226Z,16.36
2018-03-26T09:08:27.961Z,16.27
2018-03-26T09:09:27.063Z,16.36
2018-03-26T09:10:27.108Z,16.23
2018-03-26T09:11:26.914Z,16.29
2018-03-26T09:12:26.891Z,16.62
2018-03-26T09:13:26.767Z,16.92
2018-03-26T09:14:26.790Z,16.33
2018-03-26T09:15:26.733Z,15.99
2018-03-26T09:16:26.556Z,16.27
2018-03-26T09:17:26.481Z,17.03
2018-03-26T09:18:26.534Z,17.05
2018-03-26T09:19:26.321Z,15.95
2018-03-26T09:20:26.310Z,16.07
2018-03-26T09:21:26.185Z,15.40
2018-03-26T09:22:26.224Z,15.70
2018-03-26T09:23:26.026Z,15.89
2018-03-26T09:24:26.041Z,16.10
2018-03-26T09:25:25.874Z,16.08
2018-03-26T09:26:25.883Z,15.80
2018-03-26T09:27:25.732Z,16.29
2018-03-26T09:28:25.756Z,16.23
2018-03-26T09:29:25.573Z,16.78
2018-03-26T09:30:25.565Z,16.88
2018-03-26T09:31:25.461Z,17.47
2018-03-26T09:32:25.520Z,17.84
2018-03-26T09:33:25.275Z,17.53
2018-03-26T09:34:25.312Z,17.20
2018-03-26T09:35:25.123Z,16.75
2018-03-26T09:36:25.099Z,15.84
2018-03-26T09:37:24.995Z,16.45
2018-03-26T09:38:25.004Z,16.45
2018-03-26T09:39:24.835Z,16.57
2018-03-26T09:40:24.823Z,15.99
2018-03-26T09:41:24.729Z,15.93
2018-03-26T09:42:24.754Z,15.80
2018-03-26T09:43:24.560Z,15.93
2018-03-26T09:44:24.531Z,16.34
2018-03-26T09:45:24.404Z,15.77
2018-03-26T09:46:24.361Z,15.38
2018-03-26T09:47:24.287Z,15.64
2018-03-26T09:48:24.245Z,16.07
2018-03-26T09:49:24.099Z,16.42
2018-03-26T09:50:24.054Z,17.02
2018-03-26T09:51:23.958Z,17.30
2018-03-26T09:52:24.007Z,17.28
2018-03-26T09:53:23.792Z,16.92
2018-03-26T09:54:23.781Z,16.59
2018-03-26T09:55:23.653Z,16.10
2018-03-26T09:56:23.686Z,16.48
2018-03-26T09:57:23.601Z,16.60
2018-03-26T09:58:23.538Z,16.42
2018-03-26T09:59:23.354Z,16.37
2018-03-26T10:00:23.518Z,17.05
2018-03-26T10:01:23.211Z,17.18
2018-03-26T10:02:23.219Z,18.20
2018-03-26T10:03:23.078Z,18.82
2018-03-26T10:04:23.051Z,19.02
2018-03-26T10:05:22.916Z,18.97
2018-03-26T10:06:22.933Z,19.17
2018-03-26T10:07:22.798Z,18.65
2018-03-26T10:08:22.738Z,18.14
2018-03-26T10:09:22.638Z,18.28
2018-03-26T10:10:22.650Z,18.86
2018-03-26T10:11:22.471Z,18.28
2018-03-26T10:12:22.461Z,17.92
2018-03-26T10:13:22.343Z,18.51
2018-03-26T10:14:22.410Z,18.34
2018-03-26T10:15:22.199Z,17.45
2018-03-26T10:16:22.185Z,18.05
2018-03-26T10:17:22.061Z,18.19
2018-03-26T10:18:22.026Z,17.68
2018-03-26T10:19:21.899Z,17.70
2018-03-26T10:20:21.928Z,17.70
2018-03-26T10:21:21.757Z,17.49
2018-03-26T10:22:21.823Z,17.12
2018-03-26T10:23:21.614Z,17.96
2018-03-26T10:24:21.648Z,18.25
2018-03-26T10:25:21.490Z,18.50
2018-03-26T10:26:21.536Z,17.84
2018-03-26T10:27:21.321Z,17.39
2018-03-26T10:28:21.376Z,17.43
2018-03-26T10:29:21.203Z,16.91
2018-03-26T10:30:21.192Z,17.12
2018-03-26T10:31:21.049Z,17.45
2018-03-26T10:32:21.074Z,17.40
2018-03-26T10:33:20.922Z,17.25
2018-03-26T10:34:20.903Z,17.32
2018-03-26T10:35:20.775Z,17.40
2018-03-26T10:36:20.778Z,17.49
2018-03-26T10:37:20.617Z,16.47
2018-03-26T10:38:20.593Z,17.07
2018-03-26T10:39:20.480Z,17.84
2018-03-26T10:40:20.530Z,18.57
2018-03-26T10:41:20.419Z,18.87
2018-03-26T10:42:20.304Z,18.89
2018-03-26T10:43:20.194Z,18.39
2018-03-26T10:44:20.206Z,17.89
2018-03-26T10:45:20.197Z,17.46
2018-03-26T10:46:20.019Z,16.67
2018-03-26T10:47:19.909Z,16.37
2018-03-26T10:48:20.042Z,16.26
2018-03-26T10:49:19.771Z,14.48
2018-03-26T10:50:19.785Z,14.95
2018-03-26T10:51:19.615Z,15.37
2018-03-26T10:52:19.645Z,15.53
2018-03-26T10:53:19.478Z,14.95
2018-03-26T10:54:19.469Z,14.24
2018-03-26T10:55:19.364Z,14.08
2018-03-26T10:56:19.422Z,13.62
2018-03-26T10:57:19.184Z,14.66
2018-03-26T10:58:19.184Z,15.40
2018-03-26T10:59:19.042Z,15.78
2018-03-26T11:00:19.179Z,15.34
2018-03-26T11:01:18.910Z,14.97
2018-03-26T11:02:18.895Z,14.71
2018-03-26T11:03:18.759Z,15.59
2018-03-26T11:04:18.810Z,16.80
2018-03-26T11:05:18.609Z,16.63
2018-03-26T11:06:18.593Z,15.98
2018-03-26T11:07:18.464Z,15.41
2018-03-26T11:08:18.392Z,15.30
2018-03-26T11:09:18.304Z,14.53
2018-03-26T11:10:18.416Z,14.16
2018-03-26T11:11:18.173Z,14.57
2018-03-26T11:12:18.146Z,14.63
2018-03-26T11:13:18.021Z,14.49
2018-03-26T11:14:18.058Z,13.72
2018-03-26T11:15:17.857Z,13.69
2018-03-26T11:16:17.912Z,13.57
2018-03-26T11:17:17.710Z,13.81
2018-03-26T11:18:17.673Z,13.94
2018-03-26T11:19:17.563Z,14.49
2018-03-26T11:20:17.589Z,14.78
2018-03-26T11:21:17.435Z,14.91
2018-03-26T11:22:17.390Z,15.04
2018-03-26T11:23:17.252Z,14.97
2018-03-26T11:24:17.314Z,14.30
2018-03-26T11:25:17.102Z,14.75
2018-03-26T11:26:17.150Z,14.63
2018-03-26T11:27:16.984Z,14.75
2018-03-26T11:28:16.930Z,15.03
2018-03-26T11:29:16.813Z,15.11
2018-03-26T11:30:16.900Z,14.26
2018-03-26T11:31:16.682Z,14.34
2018-03-26T11:32:16.670Z,14.30
2018-03-26T11:33:16.510Z,13.84
2018-03-26T11:34:16.548Z,13.44
2018-03-26T11:35:16.347Z,13.10
2018-03-26T11:36:16.421Z,12.89
2018-03-26T11:37:16.214Z,13.47
2018-03-26T11:38:16.174Z,13.94
2018-03-26T11:39:16.036Z,13.80
2018-03-26T11:40:16.078Z,14.08
2018-03-26T11:41:15.879Z,13.98
2018-03-26T11:42:15.926Z,13.87
2018-03-26T11:43:15.737Z,14.21
2018-03-26T11:44:15.705Z,14.26
2018-03-26T11:45:15.579Z,14.42
2018-03-26T11:46:15.607Z,14.52
2018-03-26T11:47:15.453Z,14.16
2018-03-26T11:48:15.413Z,13.32
2018-03-26T11:49:15.276Z,13.04
2018-03-26T11:50:15.243Z,13.22
2018-03-26T11:51:15.105Z,13.84
2018-03-26T11:52:16.173Z,14.02
2018-03-26T11:53:14.972Z,14.11
2018-03-26T11:54:14.936Z,13.72
2018-03-26T11:55:14.849Z,13.46
2018-03-26T11:56:14.852Z,14.02
2018-03-26T11:57:14.657Z,14.05
2018-03-26T11:58:14.741Z,14.66
2018-03-26T11:59:14.491Z,14.35
2018-03-26T12:00:14.471Z,13.86
2018-03-26T12:01:14.337Z,13.65
2018-03-26T12:02:14.387Z,14.04
2018-03-26T12:03:14.251Z,14.06
2018-03-26T12:04:14.189Z,13.86
2018-03-26T12:05:14.085Z,13.61
2018-03-26T12:06:14.007Z,13.72
2018-03-26T12:07:13.880Z,14.26
2018-03-26T12:08:13.947Z,14.71
2018-03-26T12:09:13.817Z,14.94
2018-03-26T12:10:13.710Z,14.95
2018-03-26T12:11:13.568Z,14.45
2018-03-26T12:12:13.553Z,14.66
2018-03-26T12:13:13.451Z,15.27
2018-03-26T12:14:13.447Z,15.78
2018-03-26T12:15:13.253Z,16.36
2018-03-26T12:16:13.267Z,16.45
2018-03-26T12:17:13.099Z,16.48
2018-03-26T12:18:13.156Z,16.59
2018-03-26T12:19:12.969Z,15.52
2018-03-26T12:20:12.976Z,14.31
2018-03-26T12:21:12.812Z,13.91
2018-03-26T12:22:12.772Z,14.01
2018-03-26T12:23:12.644Z,14.12
2018-03-26T12:24:12.607Z,14.09
2018-03-26T12:25:12.482Z,14.36
2018-03-26T12:26:12.487Z,14.02
2018-03-26T12:27:12.343Z,13.80
2018-03-26T12:28:12.298Z,13.46
2018-03-26T12:29:12.233Z,13.22
2018-03-26T12:30:12.204Z,13.39
2018-03-26T12:31:12.023Z,13.47
2018-03-26T12:32:12.144Z,13.25
2018-03-26T12:33:11.865Z,13.09
2018-03-26T12:34:11.870Z,13.17
2018-03-26T12:35:11.722Z,13.14
2018-03-26T12:36:11.758Z,13.22
2018-03-26T12:37:11.562Z,13.29
2018-03-26T12:38:11.564Z,13.24
2018-03-26T12:39:11.408Z,12.85
2018-03-26T12:40:11.392Z,12.85
2018-03-26T12:41:11.278Z,12.81
2018-03-26T12:42:11.580Z,12.96
2018-03-26T12:43:11.098Z,13.07
2018-03-26T12:44:11.848Z,13.16
2018-03-26T12:45:11.046Z,13.27
2018-03-26T12:46:10.981Z,13.44
2018-03-26T12:47:10.789Z,13.47
2018-03-26T12:48:10.889Z,13.41
2018-03-26T12:49:10.615Z,13.04
2018-03-26T12:50:10.651Z,13.09
2018-03-26T12:51:10.458Z,12.99
2018-03-26T12:52:10.512Z,12.70
2018-03-26T12:53:10.307Z,12.69
2018-03-26T12:54:10.324Z,12.80
2018-03-26T12:55:10.171Z,12.85
2018-03-26T12:56:10.158Z,12.81
2018-03-26T12:57:09.992Z,12.94
2018-03-26T12:58:10.045Z,12.94
2018-03-26T12:59:09.843Z,13.12
2018-03-26T13:00:09.847Z,12.95
2018-03-26T13:01:09.693Z,13.17
2018-03-26T13:02:09.667Z,12.99
2018-03-26T13:03:09.522Z,13.27
2018-03-26T13:04:09.583Z,13.48
2018-03-26T13:05:09.360Z,13.84
2018-03-26T13:06:09.430Z,13.76
2018-03-26T13:07:09.204Z,13.79
2018-03-26T13:08:09.177Z,13.48
2018-03-26T13:09:09.096Z,13.03
2018-03-26T13:10:09.093Z,13.16
2018-03-26T13:11:09.027Z,13.25
2018-03-26T13:12:08.934Z,13.48
2018-03-26T13:13:08.739Z,13.62
2018-03-26T13:14:08.729Z,13.51
2018-03-26T13:15:08.588Z,13.47
2018-03-26T13:16:08.627Z,12.99
2018-03-26T13:17:08.448Z,12.95
2018-03-26T13:18:08.371Z,13.01